Time;durP1;ratioP1;P1;durP2;ratioP2;P2;SDS_P1;SDS_P2;PMS_P1;PMS_P2;Temp;Humidity;BMP_temperature;BMP_pressure;BME280_temperature;BME280_humidity;BME280_pressure;Samples;Min_cycle;Max_cycle;Signal;HPM_P1;HPM_P2
2023/05/26 00:00:09;;;;;;;20.70;4.75;;;9.80;99.90;;;;;;4980606;28;20125;-86
2023/05/26 00:02:39;;;;;;;24.80;4.88;;;9.80;99.90;;;;;;5001586;28;20471;-86
2023/05/26 00:05:06;;;;;;;25.63;5.18;;;11.30;99.90;;;;;;4985118;28;20050;-86
2023/05/26 00:07:31;;;;;;;28.98;5.45;;;9.80;99.90;;;;;;4998348;28;20045;-86
2023/05/26 00:09:57;;;;;;;23.95;5.05;;;9.60;99.90;;;;;;4999023;28;20174;-85
2023/05/26 00:12:22;;;;;;;27.60;5.35;;;11.80;99.90;;;;;;4999321;28;20466;-85
2023/05/26 00:14:48;;;;;;;20.00;5.15;;;10.00;99.90;;;;;;5002329;28;20041;-86
2023/05/26 00:17:16;;;;;;;26.73;5.65;;;9.40;99.90;;;;;;5001380;28;20077;-86
2023/05/26 00:19:43;;;;;;;27.73;6.18;;;11.20;99.90;;;;;;4998143;28;20050;-84
2023/05/26 00:22:10;;;;;;;23.08;5.07;;;9.30;99.90;;;;;;4998710;28;20105;-86
2023/05/26 00:24:36;;;;;;;25.65;5.57;;;10.10;99.90;;;;;;5007365;28;20045;-86
2023/05/26 00:27:02;;;;;;;25.92;4.68;;;12.30;99.90;;;;;;5002825;28;20078;-87
2023/05/26 00:29:27;;;;;;;24.27;6.15;;;9.60;99.90;;;;;;5007378;28;20495;-85
2023/05/26 00:31:53;;;;;;;31.08;5.30;;;9.60;99.90;;;;;;5002824;28;20042;-85
2023/05/26 00:34:19;;;;;;;21.85;4.50;;;11.40;99.90;;;;;;4998794;28;20113;-85
2023/05/26 00:36:46;;;;;;;22.38;4.70;;;9.50;99.90;;;;;;5002151;28;20042;-85
2023/05/26 00:39:12;;;;;;;21.80;4.38;;;11.50;99.90;;;;;;5001606;28;20038;-86
2023/05/26 00:41:37;;;;;;;31.80;5.75;;;11.10;99.90;;;;;;4998356;28;20405;-85
2023/05/26 00:44:03;;;;;;;29.27;6.35;;;11.80;99.90;;;;;;4998273;28;20034;-86
2023/05/26 00:46:30;;;;;;;20.70;5.60;;;11.30;99.90;;;;;;4996232;28;20515;-85
2023/05/26 00:48:56;;;;;;;26.80;5.05;;;9.50;99.90;;;;;;5000629;28;20034;-86
2023/05/26 00:51:22;;;;;;;31.60;5.85;;;10.00;99.90;;;;;;5000918;28;20116;-85
2023/05/26 00:53:49;;;;;;;20.83;5.25;;;11.30;99.90;;;;;;4998247;28;20101;-86
2023/05/26 00:56:15;;;;;;;23.25;5.65;;;9.50;99.90;;;;;;4997531;28;20078;-87
2023/05/26 00:58:45;;;;;;;25.50;5.30;;;9.40;99.90;;;;;;5000615;28;20076;-84
2023/05/26 01:01:15;;;;;;;25.85;5.18;;;12.00;99.90;;;;;;5000887;28;20049;-84
2023/05/26 01:03:40;;;;;;;44.90;7.30;;;9.40;99.90;;;;;;4998139;28;20046;-86
2023/05/26 01:06:06;;;;;;;27.30;5.70;;;9.30;99.90;;;;;;4997637;28;20093;-86
2023/05/26 01:08:32;;;;;;;30.27;6.30;;;9.30;99.90;;;;;;4979768;28;20054;-86
2023/05/26 01:11:14;;;;;;;28.48;5.47;;;11.00;99.90;;;;;;4999150;28;20164;-85
2023/05/26 01:13:54;;;;;;;25.27;5.47;;;11.70;99.90;;;;;;4998486;28;20046;-85
2023/05/26 01:16:22;;;;;;;25.20;5.00;;;9.30;99.90;;;;;;4997172;28;20058;-84
2023/05/26 01:19:00;;;;;;;28.38;5.60;;;11.00;99.90;;;;;;4968920;28;20063;-86
2023/05/26 01:21:27;;;;;;;20.90;4.97;;;9.20;99.90;;;;;;4994203;28;20097;-85
2023/05/26 01:24:12;;;;;;;24.17;6.40;;;8.90;99.90;;;;;;5000906;28;20042;-85
2023/05/26 01:26:56;;;;;;;22.60;4.63;;;9.20;99.90;;;;;;4981320;28;20662;-87
2023/05/26 01:29:24;;;;;;;25.02;4.32;;;9.20;99.90;;;;;;4997625;28;20061;-86
2023/05/26 01:31:50;;;;;;;20.05;3.95;;;9.20;99.90;;;;;;5006450;28;20386;-86
2023/05/26 01:34:16;;;;;;;27.08;5.60;;;7.10;99.90;;;;;;5007456;28;20057;-85
2023/05/26 01:36:42;;;;;;;25.92;4.78;;;9.10;99.90;;;;;;5004883;28;20046;-85
2023/05/26 01:39:09;;;;;;;26.48;5.10;;;9.80;99.90;;;;;;4984257;28;20039;-85
2023/05/26 01:41:52;;;;;;;21.95;4.68;;;11.50;99.90;;;;;;5003995;28;20453;-85
2023/05/26 01:44:31;;;;;;;27.10;5.15;;;9.20;99.90;;;;;;5004511;28;20049;-85
2023/05/26 01:46:57;;;;;;;18.65;4.63;;;7.40;99.90;;;;;;4996709;28;20046;-86
2023/05/26 01:49:28;;;;;;;24.55;5.47;;;11.10;99.90;;;;;;5003822;28;20097;-85
2023/05/26 01:52:02;;;;;;;32.53;5.18;;;11.10;99.90;;;;;;5000535;28;20033;-85
2023/05/26 01:54:34;;;;;;;18.90;4.93;;;9.20;99.90;;;;;;5006744;28;20038;-85
2023/05/26 01:57:01;;;;;;;21.88;4.15;;;11.60;99.90;;;;;;5004047;28;20077;-87
2023/05/26 01:59:29;;;;;;;28.75;5.32;;;10.30;99.90;;;;;;5003637;28;20050;-85
2023/05/26 02:01:55;;;;;;;26.95;6.65;;;9.10;99.90;;;;;;5011461;28;20078;-84
2023/05/26 02:04:20;;;;;;;21.83;5.45;;;7.20;99.90;;;;;;5004369;28;20070;-86
2023/05/26 02:06:46;;;;;;;29.38;5.65;;;9.00;99.90;;;;;;4989250;28;20549;-84
2023/05/26 02:09:12;;;;;;;23.98;4.47;;;10.60;99.90;;;;;;5007128;28;20042;-84
2023/05/26 02:11:38;;;;;;;21.05;4.78;;;11.20;99.90;;;;;;5005664;28;20062;-84
2023/05/26 02:14:03;;;;;;;21.90;5.00;;;9.30;99.90;;;;;;5003561;28;20089;-86
2023/05/26 02:16:29;;;;;;;28.23;5.22;;;11.30;99.90;;;;;;5004464;28;20061;-84
2023/05/26 02:18:55;;;;;;;22.77;4.78;;;9.70;99.90;;;;;;4989972;28;20046;-84
2023/05/26 02:21:20;;;;;;;17.88;4.65;;;9.40;99.90;;;;;;5011960;28;20057;-84
2023/05/26 02:23:46;;;;;;;21.08;3.95;;;10.40;99.90;;;;;;5014659;28;20125;-86
2023/05/26 02:26:12;;;;;;;31.73;5.55;;;9.00;99.90;;;;;;4990041;28;20042;-87
2023/05/26 02:28:38;;;;;;;21.75;5.15;;;8.90;99.90;;;;;;5005392;28;20101;-85
2023/05/26 02:31:05;;;;;;;23.70;5.28;;;8.90;99.90;;;;;;5007158;28;20564;-85
2023/05/26 02:33:31;;;;;;;26.05;5.22;;;8.90;99.90;;;;;;5006166;28;20069;-85
2023/05/26 02:35:57;;;;;;;31.10;6.10;;;11.60;99.90;;;;;;5003612;28;20085;-84
2023/05/26 02:38:22;;;;;;;21.70;5.15;;;9.10;99.90;;;;;;5003476;28;20074;-85
2023/05/26 02:40:49;;;;;;;28.17;5.05;;;9.30;99.90;;;;;;5006878;28;20033;-84
2023/05/26 02:43:15;;;;;;;22.27;5.20;;;8.70;99.90;;;;;;5002797;28;20192;-85
2023/05/26 02:45:41;;;;;;;25.80;4.57;;;10.70;99.90;;;;;;5000767;28;20049;-84
2023/05/26 02:48:08;;;;;;;22.73;5.45;;;8.50;99.90;;;;;;4999436;28;20082;-85
2023/05/26 02:50:34;;;;;;;27.08;4.80;;;10.40;99.90;;;;;;5001641;28;20046;-85
2023/05/26 02:53:00;;;;;;;27.88;5.60;;;9.60;99.90;;;;;;5003027;28;20046;-85
2023/05/26 02:55:26;;;;;;;22.08;4.35;;;8.60;99.90;;;;;;5002972;28;20526;-85
2023/05/26 02:57:52;;;;;;;27.52;5.70;;;8.50;99.90;;;;;;4983426;28;20434;-86
2023/05/26 03:00:18;;;;;;;21.58;4.72;;;10.10;99.90;;;;;;4999641;28;20089;-85
2023/05/26 03:02:44;;;;;;;21.95;6.13;;;8.50;99.90;;;;;;5002001;28;20042;-86
2023/05/26 03:05:10;;;;;;;18.75;4.88;;;10.30;99.90;;;;;;5002373;28;20048;-84
2023/05/26 03:07:35;;;;;;;22.40;4.82;;;8.50;99.90;;;;;;5001899;28;20046;-85
2023/05/26 03:10:01;;;;;;;18.42;4.38;;;8.50;99.90;;;;;;4999760;28;20320;-84
2023/05/26 03:12:27;;;;;;;24.30;5.47;;;10.00;99.90;;;;;;5000065;28;20046;-85
2023/05/26 03:14:54;;;;;;;22.05;4.78;;;8.40;99.90;;;;;;4985766;28;20040;-85
2023/05/26 03:17:19;;;;;;;23.45;4.43;;;8.40;99.90;;;;;;4984816;28;20149;-83
2023/05/26 03:19:45;;;;;;;27.80;4.55;;;8.40;99.90;;;;;;5001481;28;20353;-85
2023/05/26 03:22:11;;;;;;;20.80;4.45;;;8.30;99.90;;;;;;4999679;28;20590;-84
2023/05/26 03:24:37;;;;;;;23.00;4.22;;;10.60;99.90;;;;;;4982990;28;20490;-84
2023/05/26 03:27:04;;;;;;;21.60;4.63;;;6.40;99.90;;;;;;4978543;28;20043;-86
2023/05/26 03:29:30;;;;;;;22.55;5.07;;;8.30;99.90;;;;;;4999703;28;20461;-85
2023/05/26 03:31:56;;;;;;;18.98;4.13;;;8.30;99.90;;;;;;5002607;28;20034;-84
2023/05/26 03:34:24;;;;;;;28.02;5.53;;;8.20;99.90;;;;;;5003837;28;20125;-85
2023/05/26 03:36:49;;;;;;;19.05;4.50;;;10.30;99.90;;;;;;5002401;28;20184;-84
2023/05/26 03:39:16;;;;;;;26.75;4.75;;;8.10;99.90;;;;;;5002466;28;20482;-85
2023/05/26 03:41:42;;;;;;;20.73;5.45;;;;;;;;;;5001431;28;20052;-85
2023/05/26 03:44:08;;;;;;;25.20;5.18;;;8.30;99.90;;;;;;4999242;28;20081;-85
2023/05/26 03:46:33;;;;;;;22.27;4.57;;;9.90;99.90;;;;;;4998956;28;20398;-86
2023/05/26 03:49:00;;;;;;;23.70;4.55;;;10.30;99.90;;;;;;5002442;28;20045;-85
2023/05/26 03:51:26;;;;;;;20.15;4.38;;;8.30;99.90;;;;;;5001179;28;20104;-85
2023/05/26 03:53:52;;;;;;;19.88;4.28;;;9.70;99.90;;;;;;5000865;28;20185;-84
2023/05/26 03:56:18;;;;;;;24.95;4.80;;;8.70;99.90;;;;;;4999232;28;20109;-86
2023/05/26 03:58:44;;;;;;;21.98;5.18;;;10.50;99.90;;;;;;5000157;28;20050;-85
2023/05/26 04:01:10;;;;;;;25.45;4.70;;;10.10;99.90;;;;;;4985365;28;20068;-86
2023/05/26 04:03:35;;;;;;;19.63;4.82;;;8.30;99.90;;;;;;4984829;28;20490;-86
2023/05/26 04:06:01;;;;;;;20.10;5.47;;;8.30;99.90;;;;;;4994335;28;20389;-85
2023/05/26 04:08:28;;;;;;;19.98;4.50;;;9.40;99.90;;;;;;5001862;28;20061;-86
2023/05/26 04:10:54;;;;;;;23.95;5.30;;;8.50;99.90;;;;;;4999853;28;20057;-85
2023/05/26 04:13:19;;;;;;;22.67;5.07;;;8.70;99.90;;;;;;4981681;28;20338;-85
2023/05/26 04:15:45;;;;;;;19.67;4.88;;;9.60;99.90;;;;;;5002146;28;20130;-86
2023/05/26 04:18:11;;;;;;;20.33;4.95;;;8.10;99.90;;;;;;5013561;28;20065;-85
2023/05/26 04:20:36;;;;;;;24.10;5.18;;;8.30;99.90;;;;;;5006801;28;20483;-85
2023/05/26 04:23:02;;;;;;;24.38;4.63;;;;;;;;;;4999383;28;20038;-85
2023/05/26 04:25:28;;;;;;;27.92;4.65;;;8.30;99.90;;;;;;4998678;28;20696;-86
2023/05/26 04:27:57;;;;;;;24.02;6.03;;;8.30;99.90;;;;;;5000925;28;20046;-87
2023/05/26 04:30:23;;;;;;;26.80;5.00;;;8.30;99.90;;;;;;4977882;28;20092;-86
2023/05/26 04:32:49;;;;;;;23.17;5.47;;;8.30;99.90;;;;;;4997564;28;20054;-85
2023/05/26 04:35:15;;;;;;;26.38;5.15;;;9.80;99.90;;;;;;4997824;28;20045;-85
2023/05/26 04:37:42;;;;;;;21.13;5.05;;;9.70;99.90;;;;;;4998023;28;20053;-85
2023/05/26 04:40:09;;;;;;;23.05;4.80;;;8.30;99.90;;;;;;4979808;28;20576;-85
2023/05/26 04:42:36;;;;;;;20.52;4.40;;;8.40;99.90;;;;;;4998316;28;20069;-85
2023/05/26 04:45:08;;;;;;;23.55;4.63;;;10.80;99.90;;;;;;4976421;28;20041;-86
2023/05/26 04:47:34;;;;;;;28.42;5.28;;;8.40;99.90;;;;;;5000325;28;20046;-85
2023/05/26 04:50:03;;;;;;;26.02;5.38;;;9.00;99.90;;;;;;4998120;28;20414;-85
2023/05/26 04:52:29;;;;;;;31.90;5.90;;;9.90;99.90;;;;;;4998422;28;20530;-86
2023/05/26 04:54:55;;;;;;;25.38;4.78;;;9.20;99.90;;;;;;5000479;28;20050;-84
2023/05/26 04:57:21;;;;;;;28.13;5.65;;;10.50;99.90;;;;;;5004878;28;20046;-85
2023/05/26 04:59:47;;;;;;;27.42;4.63;;;10.90;99.90;;;;;;4982548;28;20050;-86
2023/05/26 05:02:13;;;;;;;36.50;5.28;;;8.00;99.90;;;;;;4998122;28;20049;-86
2023/05/26 05:04:42;;;;;;;30.83;5.80;;;8.50;99.90;;;;;;4997836;28;20042;-87
2023/05/26 05:07:08;;;;;;;29.08;6.07;;;10.30;99.90;;;;;;4997710;28;20053;-86
2023/05/26 05:09:34;;;;;;;23.40;5.45;;;9.80;99.90;;;;;;4997546;28;20038;-85
2023/05/26 05:12:00;;;;;;;31.40;5.18;;;8.70;99.90;;;;;;5000952;28;20050;-85
2023/05/26 05:14:26;;;;;;;26.30;5.68;;;9.20;99.90;;;;;;5003330;28;20124;-86
2023/05/26 05:16:51;;;;;;;23.23;5.63;;;10.30;99.90;;;;;;4998375;28;20166;-85
2023/05/26 05:19:17;;;;;;;29.17;5.30;;;10.30;99.90;;;;;;4995996;28;20867;-86
2023/05/26 05:21:43;;;;;;;28.08;5.05;;;8.90;99.90;;;;;;4998481;28;20038;-85
2023/05/26 05:24:08;;;;;;;29.63;5.47;;;10.20;99.90;;;;;;5000816;28;20501;-86
2023/05/26 05:26:34;;;;;;;28.75;5.30;;;8.80;99.90;;;;;;5002173;28;20121;-86
2023/05/26 05:28:59;;;;;;;25.75;5.07;;;9.00;99.90;;;;;;4998112;28;20125;-85
2023/05/26 05:31:25;;;;;;;24.23;5.10;;;9.10;99.90;;;;;;4979615;28;20038;-85
2023/05/26 05:33:51;;;;;;;29.00;6.05;;;9.10;99.90;;;;;;5000283;28;20069;-85
2023/05/26 05:36:16;;;;;;;21.85;4.68;;;11.50;99.90;;;;;;5000731;28;20054;-85
2023/05/26 05:38:42;;;;;;;31.75;5.65;;;10.90;99.90;;;;;;5000627;28;20048;-85
2023/05/26 05:41:09;;;;;;;26.77;7.45;;;11.40;99.90;;;;;;4998988;28;20422;-85
2023/05/26 05:43:35;;;;;;;36.83;10.85;;;10.80;99.90;;;;;;4998458;28;20449;-85
2023/05/26 05:46:00;;;;;;;34.15;9.60;;;11.70;99.90;;;;;;4982006;28;20046;-85
2023/05/26 05:48:26;;;;;;;22.00;4.55;;;11.00;99.90;;;;;;5001210;28;20095;-83
2023/05/26 05:50:53;;;;;;;30.23;5.00;;;9.90;99.90;;;;;;5002519;28;20038;-85
2023/05/26 05:53:19;;;;;;;24.35;5.20;;;11.80;99.90;;;;;;4965731;28;20090;-85
2023/05/26 05:55:46;;;;;;;33.97;4.40;;;11.90;99.90;;;;;;4997869;28;20109;-86
2023/05/26 05:58:13;;;;;;;24.45;5.28;;;11.90;99.90;;;;;;5004616;28;20376;-86
2023/05/26 06:00:38;;;;;;;20.50;4.70;;;9.50;99.90;;;;;;4976641;28;20069;-84
2023/05/26 06:03:12;;;;;;;27.88;5.68;;;12.00;99.90;;;;;;5001961;28;20038;-88
2023/05/26 06:05:39;;;;;;;25.77;5.55;;;10.30;99.90;;;;;;4999488;28;20046;-81
2023/05/26 06:08:05;;;;;;;21.40;4.57;;;9.90;99.90;;;;;;4992577;28;20140;-81
2023/05/26 06:10:31;;;;;;;24.52;5.22;;;9.90;99.90;;;;;;4989307;28;20482;-81
2023/05/26 06:12:57;;;;;;;30.17;5.72;;;10.00;99.90;;;;;;4998876;28;20035;-86
2023/05/26 06:15:22;;;;;;;24.63;4.85;;;10.00;99.90;;;;;;4998140;28;20060;-83
2023/05/26 06:17:48;;;;;;;22.05;4.38;;;11.60;99.90;;;;;;4999634;28;20077;-83
2023/05/26 06:20:14;;;;;;;25.77;4.63;;;10.10;99.90;;;;;;5003550;28;20061;-84
2023/05/26 06:22:40;;;;;;;21.25;4.60;;;10.20;99.90;;;;;;4989326;28;20458;-83
2023/05/26 06:25:06;;;;;;;23.05;4.95;;;10.20;99.90;;;;;;5004277;28;20046;-81
2023/05/26 06:27:32;;;;;;;30.27;5.40;;;10.30;99.90;;;;;;4995989;28;20181;-84
2023/05/26 06:29:58;;;;;;;23.70;5.05;;;10.30;99.90;;;;;;4999467;28;20634;-83
2023/05/26 06:32:23;;;;;;;23.02;4.47;;;12.40;99.90;;;;;;5003730;28;20042;-84
2023/05/26 06:34:49;;;;;;;22.02;5.50;;;12.50;99.90;;;;;;5002959;28;20136;-81
2023/05/26 06:37:14;;;;;;;24.35;4.82;;;11.20;99.90;;;;;;4982698;28;20049;-81
2023/05/26 06:39:40;;;;;;;20.60;4.22;;;10.50;99.90;;;;;;5000329;28;20133;-81
2023/05/26 06:42:06;;;;;;;20.63;4.13;;;12.70;99.90;;;;;;5002935;28;20041;-83
2023/05/26 06:44:33;;;;;;;21.80;3.65;;;10.50;99.90;;;;;;5004060;28;20037;-82
2023/05/26 06:47:00;;;;;;;19.92;4.60;;;12.80;99.90;;;;;;5001379;28;20099;-84
2023/05/26 06:49:26;;;;;;;20.85;4.57;;;11.40;99.90;;;;;;4999535;28;20042;-84
2023/05/26 06:51:51;;;;;;;22.52;3.90;;;12.30;99.90;;;;;;5001107;28;20494;-84
2023/05/26 06:54:17;;;;;;;18.98;3.83;;;11.90;99.90;;;;;;4999101;28;20565;-85
2023/05/26 06:56:42;;;;;;;17.30;4.22;;;10.70;99.90;;;;;;4999738;28;20331;-85
2023/05/26 06:59:08;;;;;;;22.77;4.82;;;12.70;99.90;;;;;;5002600;28;20428;-85
2023/05/26 07:01:34;;;;;;;19.48;4.20;;;13.00;99.90;;;;;;5002906;28;20042;-82
2023/05/26 07:04:00;;;;;;;21.83;3.17;;;10.90;99.90;;;;;;5001644;28;20077;-83
2023/05/26 07:06:25;;;;;;;15.50;3.53;;;12.50;99.90;;;;;;4999612;28;20112;-83
2023/05/26 07:08:51;;;;;;;19.10;3.65;;;11.80;99.90;;;;;;5000058;28;20056;-83
2023/05/26 07:11:16;;;;;;;21.88;4.60;;;11.00;99.90;;;;;;5002969;28;20077;-83
2023/05/26 07:13:45;;;;;;;25.20;4.22;;;12.50;99.90;;;;;;5002991;28;20128;-81
2023/05/26 07:16:10;;;;;;;22.35;3.85;;;11.00;99.90;;;;;;5002042;28;20057;-83
2023/05/26 07:18:36;;;;;;;18.52;3.70;;;11.10;99.90;;;;;;5003049;28;20363;-83
2023/05/26 07:21:02;;;;;;;24.35;3.90;;;12.50;99.90;;;;;;5000852;28;20375;-82
2023/05/26 07:23:27;;;;;;;17.55;3.83;;;11.10;99.90;;;;;;4999278;28;20043;-83
2023/05/26 07:25:53;;;;;;;16.95;3.65;;;11.20;99.90;;;;;;5000501;28;20069;-84
2023/05/26 07:28:19;;;;;;;23.27;4.35;;;11.30;99.90;;;;;;4984152;28;20046;-83
2023/05/26 07:30:44;;;;;;;17.33;3.55;;;10.40;99.90;;;;;;4966491;28;20055;-84
2023/05/26 07:33:11;;;;;;;17.48;3.55;;;11.10;99.90;;;;;;5001691;28;20270;-81
2023/05/26 07:35:37;;;;;;;24.63;3.55;;;13.10;99.90;;;;;;5002639;28;20112;-85
2023/05/26 07:38:07;;;;;;;19.33;4.45;;;13.10;99.90;;;;;;5000646;28;20076;-83
2023/05/26 07:40:34;;;;;;;20.63;3.78;;;13.00;99.90;;;;;;4994847;28;20093;-83
2023/05/26 07:43:03;;;;;;;16.20;3.28;;;14.00;99.90;;;;;;4998536;28;20113;-84
2023/05/26 07:45:29;;;;;;;15.35;3.83;;;11.60;99.90;;;;;;5002166;28;20129;-84
2023/05/26 07:47:55;;;;;;;17.50;3.30;;;12.10;99.90;;;;;;5002289;28;20132;-83
2023/05/26 07:50:21;;;;;;;19.30;3.45;;;11.60;99.90;;;;;;4994474;28;20078;-83
2023/05/26 07:52:46;;;;;;;18.05;3.78;;;11.70;99.90;;;;;;4994911;28;20125;-83
2023/05/26 07:55:12;;;;;;;12.90;3.30;;;11.80;99.90;;;;;;4989924;28;20046;-81
2023/05/26 07:57:38;;;;;;;20.65;3.70;;;12.60;99.90;;;;;;4998733;28;20042;-85
2023/05/26 08:00:05;;;;;;;16.23;3.42;;;13.50;99.90;;;;;;5000985;28;20050;-84
2023/05/26 08:02:31;;;;;;;14.88;3.80;;;11.80;99.90;;;;;;5006592;28;20053;-84
2023/05/26 08:04:56;;;;;;;14.85;3.78;;;12.30;99.90;;;;;;5011560;28;20132;-83
2023/05/26 08:07:22;;;;;;;19.27;3.75;;;11.90;99.90;;;;;;5008148;28;20069;-81
2023/05/26 08:09:48;;;;;;;18.65;4.15;;;11.90;99.90;;;;;;5006187;28;20514;-83
2023/05/26 08:12:14;;;;;;;21.13;3.90;;;14.30;99.90;;;;;;4981764;28;20149;-84
2023/05/26 08:14:39;;;;;;;24.00;3.28;;;12.00;99.90;;;;;;4998670;28;20084;-83
2023/05/26 08:17:05;;;;;;;15.95;3.67;;;10.70;99.90;;;;;;4999378;28;20057;-85
2023/05/26 08:19:31;;;;;;;14.43;3.28;;;13.90;99.90;;;;;;5001264;28;20457;-83
2023/05/26 08:21:57;;;;;;;15.98;3.00;;;12.20;99.90;;;;;;5001614;28;20040;-83
2023/05/26 08:24:24;;;;;;;17.52;3.63;;;12.20;99.90;;;;;;4998306;28;20054;-84
2023/05/26 08:26:50;;;;;;;16.85;3.25;;;12.20;99.90;;;;;;4997684;28;20518;-85
2023/05/26 08:29:16;;;;;;;16.27;3.20;;;14.40;99.90;;;;;;4998441;28;20206;-82
2023/05/26 08:31:41;;;;;;;14.25;2.92;;;14.40;99.90;;;;;;4993603;28;20039;-82
2023/05/26 08:34:07;;;;;;;13.05;3.10;;;12.30;99.90;;;;;;4997797;28;20046;-85
2023/05/26 08:36:33;;;;;;;9.63;3.10;;;13.20;99.90;;;;;;5001668;28;20406;-84
2023/05/26 08:38:59;;;;;;;15.18;3.33;;;12.40;99.90;;;;;;5001296;28;20121;-83
2023/05/26 08:41:33;;;;;;;13.07;3.10;;;13.20;99.90;;;;;;4997135;28;20129;-83
2023/05/26 08:44:01;;;;;;;15.50;2.70;;;14.10;99.90;;;;;;4998460;28;20034;-84
2023/05/26 08:46:28;;;;;;;18.38;3.70;;;13.00;99.90;;;;;;5000710;28;20461;-84
2023/05/26 08:48:56;;;;;;;20.80;3.97;;;14.20;99.90;;;;;;5001204;28;20397;-84
2023/05/26 08:51:22;;;;;;;19.38;3.90;;;12.60;99.90;;;;;;5000165;28;20042;-83
2023/05/26 08:53:49;;;;;;;14.07;3.40;;;14.00;99.90;;;;;;5001403;28;20037;-84
2023/05/26 08:56:15;;;;;;;16.65;3.20;;;12.60;99.90;;;;;;4981482;28;20096;-83
2023/05/26 08:58:43;;;;;;;12.35;3.30;;;14.40;99.90;;;;;;4997665;28;20403;-84
2023/05/26 09:01:09;;;;;;;14.18;3.67;;;12.80;99.90;;;;;;4998846;28;20484;-85
2023/05/26 09:03:35;;;;;;;19.50;3.83;;;13.40;99.90;;;;;;5001302;28;20116;-85
2023/05/26 09:06:01;;;;;;;29.00;4.15;;;12.90;99.90;;;;;;5000410;28;20046;-82
2023/05/26 09:08:27;;;;;;;35.83;4.78;;;12.90;99.90;;;;;;4992647;28;20556;-84
2023/05/26 09:10:53;;;;;;;15.50;3.92;;;12.90;99.90;;;;;;4994311;28;20050;-83
2023/05/26 09:13:20;;;;;;;27.67;5.90;;;13.00;99.90;;;;;;4998784;28;20160;-85
2023/05/26 09:15:51;;;;;;;24.38;4.57;;;13.80;99.90;;;;;;5000514;28;20054;-82
2023/05/26 09:18:18;;;;;;;15.20;3.22;;;13.80;99.90;;;;;;4998489;28;20064;-86
2023/05/26 09:20:45;;;;;;;14.80;3.22;;;13.90;99.90;;;;;;4976506;28;20406;-84
2023/05/26 09:23:11;;;;;;;13.80;3.20;;;14.80;99.90;;;;;;4996851;28;20453;-83
2023/05/26 09:25:40;;;;;;;16.42;3.30;;;14.00;99.90;;;;;;5000587;28;20034;-82
2023/05/26 09:28:09;;;;;;;15.93;4.13;;;14.80;99.90;;;;;;4999802;28;20398;-83
2023/05/26 09:30:37;;;;;;;13.55;2.95;;;13.90;99.90;;;;;;4996846;28;20113;-85
2023/05/26 09:33:08;;;;;;;16.40;3.65;;;15.00;99.90;;;;;;4963889;28;20050;-85
2023/05/26 09:35:35;;;;;;;17.13;3.67;;;13.50;99.90;;;;;;4979579;28;20039;-85
2023/05/26 09:38:04;;;;;;;20.27;3.80;;;13.40;99.90;;;;;;4996653;28;20120;-83
2023/05/26 09:40:29;;;;;;;12.82;3.33;;;13.50;99.90;;;;;;4997247;28;20499;-83
2023/05/26 09:42:55;;;;;;;20.15;4.05;;;13.60;99.90;;;;;;4997373;28;20045;-84
2023/05/26 09:45:22;;;;;;;14.75;3.55;;;15.00;99.90;;;;;;4999407;28;20053;-83
2023/05/26 09:47:57;;;;;;;24.17;4.03;;;13.70;99.90;;;;;;4982853;28;20042;-82
2023/05/26 09:50:24;;;;;;;21.20;4.18;;;13.70;99.90;;;;;;4997791;28;20034;-83
2023/05/26 09:52:50;;;;;;;21.08;3.95;;;13.70;99.90;;;;;;5001164;28;20035;-82
2023/05/26 09:55:16;;;;;;;15.27;3.33;;;13.80;99.90;;;;;;4984903;28;20051;-84
2023/05/26 09:57:45;;;;;;;16.90;3.75;;;14.50;99.90;;;;;;5011262;28;20049;-84
2023/05/26 10:00:13;;;;;;;16.83;3.28;;;15.50;99.90;;;;;;5010926;28;20034;-83
2023/05/26 10:02:40;;;;;;;17.38;3.75;;;13.90;99.90;;;;;;5003167;28;20050;-83
2023/05/26 10:05:06;;;;;;;15.80;3.00;;;13.90;99.90;;;;;;4999399;28;20050;-83
2023/05/26 10:07:32;;;;;;;19.35;4.70;;;14.00;99.90;;;;;;5004018;28;20042;-82
2023/05/26 10:09:59;;;;;;;15.15;3.58;;;14.00;99.90;;;;;;5004327;28;20034;-82
2023/05/26 10:12:33;;;;;;;12.00;3.13;;;15.20;99.90;;;;;;4984028;28;20069;-84
2023/05/26 10:14:59;;;;;;;15.75;3.65;;;14.20;99.90;;;;;;5000753;28;20042;-84
2023/05/26 10:17:26;;;;;;;17.92;4.25;;;14.20;99.90;;;;;;5002583;28;20054;-85
2023/05/26 10:19:56;;;;;;;16.40;3.28;;;14.30;99.90;;;;;;5004017;28;20049;-84
2023/05/26 10:22:48;;;;;;;14.68;3.55;;;14.30;99.90;;;;;;5002247;28;20041;-82
2023/05/26 10:25:32;;;;;;;18.80;4.40;;;14.40;99.90;;;;;;5000574;28;20462;-86
2023/05/26 10:28:10;;;;;;;16.27;3.30;;;14.50;99.90;;;;;;5003454;28;20052;-85
2023/05/26 10:30:39;;;;;;;14.50;3.15;;;14.60;99.90;;;;;;5000998;28;20042;-85
2023/05/26 10:33:15;;;;;;;12.68;3.15;;;15.50;99.90;;;;;;5000862;28;20034;-84
2023/05/26 10:35:55;;;;;;;16.05;3.88;;;14.80;99.90;;;;;;4980972;28;20054;-84
2023/05/26 10:38:26;;;;;;;14.23;3.78;;;14.80;99.90;;;;;;5002433;28;20493;-79
2023/05/26 10:40:52;;;;;;;15.18;3.85;;;15.00;99.90;;;;;;5000236;28;20082;-83
2023/05/26 10:43:24;;;;;;;15.35;3.42;;;15.00;99.90;;;;;;5000849;28;20072;-84
2023/05/26 10:45:58;;;;;;;16.92;3.28;;;15.00;99.90;;;;;;5003871;28;20049;-83
2023/05/26 10:48:56;;;;;;;16.27;3.40;;;15.20;99.90;;;;;;5001345;28;20568;-82
2023/05/26 10:51:32;;;;;;;15.52;3.80;;;15.30;99.90;;;;;;5001024;28;20482;-84
2023/05/26 10:53:59;;;;;;;20.00;3.53;;;15.40;99.90;;;;;;5003169;28;20110;-83
2023/05/26 10:56:42;;;;;;;17.83;4.25;;;15.40;99.90;;;;;;5003074;28;20042;-85
2023/05/26 10:59:28;;;;;;;15.45;3.90;;;15.50;99.90;;;;;;5003960;28;20042;-84
2023/05/26 11:01:54;;;;;;;18.75;3.58;;;15.60;99.90;;;;;;4993988;28;20085;-85
2023/05/26 11:04:21;;;;;;;16.35;3.70;;;15.60;99.90;;;;;;5000151;28;20070;-83
2023/05/26 11:06:51;;;;;;;19.42;3.50;;;15.70;99.90;;;;;;5003361;28;20113;-84
2023/05/26 11:09:22;;;;;;;16.48;4.43;;;15.80;99.90;;;;;;5003149;28;20038;-83
2023/05/26 11:11:53;;;;;;;21.88;4.03;;;15.90;99.90;;;;;;5003035;28;20542;-84
2023/05/26 11:14:34;;;;;;;16.13;4.00;;;16.00;99.90;;;;;;5002646;28;20251;-83
2023/05/26 11:17:04;;;;;;;23.70;4.28;;;17.10;99.90;;;;;;4987447;28;20069;-84
2023/05/26 11:19:35;;;;;;;18.08;4.70;;;16.10;99.90;;;;;;5000100;28;20053;-84
2023/05/26 11:22:04;;;;;;;14.73;3.55;;;16.20;99.90;;;;;;5000589;28;20068;-83
2023/05/26 11:24:31;;;;;;;15.85;3.67;;;16.30;99.90;;;;;;5001419;28;20054;-84
2023/05/26 11:27:02;;;;;;;17.27;4.00;;;16.30;99.90;;;;;;5003195;28;20125;-85
2023/05/26 11:29:30;;;;;;;15.63;3.13;;;16.40;99.90;;;;;;5003153;28;20174;-83
2023/05/26 11:31:56;;;;;;;17.27;4.05;;;16.40;99.90;;;;;;4986243;28;20030;-82
2023/05/26 11:34:27;;;;;;;16.75;3.55;;;16.50;99.90;;;;;;4997400;28;20474;-84
2023/05/26 11:36:53;;;;;;;12.80;3.47;;;17.60;99.90;;;;;;5005020;28;20046;-86
2023/05/26 11:39:21;;;;;;;13.68;3.60;;;16.70;99.90;;;;;;5001470;28;20112;-86
2023/05/26 11:41:47;;;;;;;10.10;3.53;;;17.90;99.90;;;;;;5006619;28;20042;-85
2023/05/26 11:44:16;;;;;;;15.82;3.45;;;18.30;99.90;;;;;;4997266;28;20185;-86
2023/05/26 11:46:43;;;;;;;15.20;3.53;;;16.90;99.90;;;;;;4989106;28;21989;-84
2023/05/26 11:49:15;;;;;;;17.77;4.57;;;17.00;99.90;;;;;;4991049;28;20391;-85
2023/05/26 11:51:47;;;;;;;16.52;4.00;;;17.20;99.90;;;;;;5004465;28;20688;-86
2023/05/26 11:54:13;;;;;;;14.95;4.20;;;17.40;99.90;;;;;;5002616;28;20061;-86
2023/05/26 11:56:39;;;;;;;19.20;4.15;;;17.10;99.90;;;;;;5000269;28;20121;-86
2023/05/26 11:59:05;;;;;;;15.18;3.72;;;17.00;99.90;;;;;;4999916;28;20113;-86
2023/05/26 12:01:31;;;;;;;14.93;3.25;;;17.00;99.90;;;;;;4996922;28;20145;-85
2023/05/26 12:04:01;;;;;;;14.13;3.53;;;17.10;99.90;;;;;;5001817;28;20401;-85
2023/05/26 12:06:29;;;;;;;16.08;3.85;;;17.60;99.90;;;;;;5001174;28;20128;-86
2023/05/26 12:09:00;;;;;;;14.35;3.92;;;17.10;99.90;;;;;;4998723;28;20052;-82
2023/05/26 12:11:28;;;;;;;17.38;4.05;;;18.70;99.90;;;;;;4998574;28;20483;-84
2023/05/26 12:14:03;;;;;;;17.65;3.92;;;18.40;99.90;;;;;;4985387;28;20053;-80
2023/05/26 12:16:28;;;;;;;13.70;3.92;;;17.50;99.90;;;;;;5000816;28;20127;-85
2023/05/26 12:18:56;;;;;;;14.43;3.28;;;17.30;99.90;;;;;;4998714;28;20514;-84
2023/05/26 12:21:23;;;;;;;14.55;3.83;;;17.40;99.90;;;;;;4976087;28;20042;-85
2023/05/26 12:23:49;;;;;;;15.40;3.28;;;17.60;99.90;;;;;;4999036;28;20121;-83
2023/05/26 12:26:16;;;;;;;14.35;3.78;;;17.80;99.90;;;;;;4997596;28;20414;-84
2023/05/26 12:28:43;;;;;;;13.02;3.60;;;17.90;99.90;;;;;;5000982;28;20042;-85
2023/05/26 12:31:11;;;;;;;16.38;3.58;;;18.00;99.80;;;;;;5004374;28;20034;-84
2023/05/26 12:33:38;;;;;;;19.65;4.35;;;17.90;99.70;;;;;;4999802;28;20038;-85
2023/05/26 12:36:05;;;;;;;14.02;3.63;;;18.00;99.60;;;;;;4978620;28;20081;-88
2023/05/26 12:38:41;;;;;;;12.93;4.13;;;18.10;99.60;;;;;;4980976;28;20139;-82
2023/05/26 12:41:06;;;;;;;13.98;3.63;;;18.50;99.50;;;;;;4980475;28;20081;-83